Time;durP1;ratioP1;P1;durP2;ratioP2;P2;SDS_P1;SDS_P2;PMS_P1;PMS_P2;Temp;Humidity;BMP_temperature;BMP_pressure;BME280_temperature;BME280_humidity;BME280_pressure;Samples;Min_cycle;Max_cycle;Signal;HPM_P1;HPM_P2
2022/11/19 00:01:18;;;;;;;2.72;2.10;;;16.50;59.80;;;;;;5087894;28;45198;-73
2022/11/19 00:03:45;;;;;;;2.75;2.17;;;16.50;59.30;;;;;;5087329;27;47006;-74
2022/11/19 00:06:13;;;;;;;2.40;1.92;;;16.50;59.40;;;;;;5087473;28;45388;-74
2022/11/19 00:08:40;;;;;;;2.75;2.20;;;16.50;59.30;;;;;;5087536;27;45329;-73
2022/11/19 00:11:08;;;;;;;2.15;1.75;;;16.50;59.30;;;;;;5087652;27;45180;-73
2022/11/19 00:13:36;;;;;;;2.30;1.90;;;16.50;59.40;;;;;;5087244;27;46618;-73
2022/11/19 00:16:04;;;;;;;1.98;1.77;;;16.40;59.30;;;;;;5087281;27;45321;-73
2022/11/19 00:18:31;;;;;;;2.70;2.13;;;16.40;59.30;;;;;;5087435;27;45383;-73
2022/11/19 00:21:05;;;;;;;2.33;2.10;;;16.40;59.40;;;;;;5087552;27;45406;-73
2022/11/19 00:23:32;;;;;;;2.10;1.85;;;16.40;59.30;;;;;;5087104;27;45194;-73
2022/11/19 00:26:07;;;;;;;3.03;1.80;;;16.40;59.30;;;;;;5087250;27;45299;-74
2022/11/19 00:28:35;;;;;;;1.80;1.70;;;16.40;60.00;;;;;;5087394;27;45250;-73
2022/11/19 00:31:04;;;;;;;1.80;1.60;;;16.40;59.40;;;;;;5087484;27;45498;-73
2022/11/19 00:33:31;;;;;;;2.00;1.70;;;16.40;59.40;;;;;;5086984;27;46732;-75
2022/11/19 00:35:59;;;;;;;1.95;1.75;;;16.40;59.40;;;;;;5087079;27;45278;-73
2022/11/19 00:38:25;;;;;;;1.80;1.70;;;16.30;59.30;;;;;;5087130;27;45258;-73
2022/11/19 00:40:52;;;;;;;2.45;1.80;;;16.30;59.40;;;;;;5086812;27;45371;-73
2022/11/19 00:46:05;;;;;;;1.55;1.45;;;16.30;60.00;;;;;;5083865;28;45319;-73
2022/11/19 00:48:32;;;;;;;2.13;1.50;;;16.30;59.40;;;;;;5086210;27;45260;-73
2022/11/19 00:50:59;;;;;;;1.98;1.70;;;16.30;59.50;;;;;;5087148;27;45219;-73
2022/11/19 00:53:26;;;;;;;2.50;1.60;;;16.20;59.40;;;;;;5086818;28;46746;-73
2022/11/19 00:55:53;;;;;;;1.70;1.60;;;16.20;59.40;;;;;;5086605;27;45457;-73
2022/11/19 00:58:19;;;;;;;1.85;1.75;;;16.20;59.40;;;;;;5086876;27;45288;-73
2022/11/19 01:00:46;;;;;;;1.98;1.75;;;16.20;60.10;;;;;;5087374;27;45339;-73
2022/11/19 01:03:15;;;;;;;1.63;1.48;;;16.20;59.40;;;;;;5086938;27;45248;-73
2022/11/19 01:05:42;;;;;;;1.70;1.50;;;16.20;60.00;;;;;;5086872;27;45393;-73
2022/11/19 01:08:09;;;;;;;1.60;1.50;;;16.20;59.40;;;;;;5086840;27;45308;-73
2022/11/19 01:10:36;;;;;;;1.98;1.40;;;16.20;59.40;;;;;;5086980;27;45399;-73
2022/11/19 01:15:48;;;;;;;1.63;1.25;;;16.20;59.40;;;;;;5084148;28;45196;-73
2022/11/19 01:18:16;;;;;;;2.85;1.33;;;16.20;59.40;;;;;;5086689;27;45203;-73
2022/11/19 01:20:43;;;;;;;1.35;1.20;;;16.20;59.40;;;;;;5086868;27;45274;-73
2022/11/19 01:23:10;;;;;;;1.40;1.30;;;16.20;59.40;;;;;;5086651;28;45303;-73
2022/11/19 01:25:37;;;;;;;1.40;1.30;;;16.10;59.40;;;;;;5086628;27;45196;-73
2022/11/19 01:28:04;;;;;;;2.42;1.50;;;16.20;59.40;;;;;;5086621;27;45247;-73
2022/11/19 01:30:31;;;;;;;1.50;1.25;;;16.10;59.40;;;;;;5086692;27;45199;-73
2022/11/19 01:32:58;;;;;;;2.35;1.80;;;16.10;59.40;;;;;;5086404;27;45283;-73
2022/11/19 01:35:26;;;;;;;1.42;1.33;;;16.10;59.50;;;;;;5085864;27;45298;-73
2022/11/19 01:37:53;;;;;;;1.70;1.58;;;16.10;59.50;;;;;;5085683;27;45211;-73
2022/11/19 01:40:20;;;;;;;1.50;1.40;;;16.10;59.50;;;;;;5086679;27;45287;-73
2022/11/19 01:42:49;;;;;;;1.42;1.33;;;16.10;59.50;;;;;;5086211;27;46391;-73
2022/11/19 01:45:30;;;;;;;1.50;1.30;;;16.10;59.50;;;;;;5086257;27;45308;-73
2022/11/19 01:47:58;;;;;;;1.33;1.23;;;16.10;59.50;;;;;;5086578;27;45519;-73
2022/11/19 01:50:26;;;;;;;1.00;0.95;;;16.10;60.10;;;;;;5086524;27;45323;-74
2022/11/19 01:52:53;;;;;;;1.33;1.23;;;16.10;59.50;;;;;;5086641;27;45502;-73
2022/11/19 01:55:20;;;;;;;1.55;1.33;;;16.10;59.50;;;;;;5089426;27;45187;-73
2022/11/19 01:57:47;;;;;;;1.83;1.20;;;16.00;59.50;;;;;;5089712;27;45362;-73
2022/11/19 02:00:16;;;;;;;1.20;1.10;;;16.00;59.50;;;;;;5089905;27;45283;-73
2022/11/19 02:02:43;;;;;;;2.10;1.48;;;16.00;59.40;;;;;;5089526;27;45354;-73
2022/11/19 02:05:10;;;;;;;1.40;1.30;;;16.00;59.50;;;;;;5089532;27;45236;-73
2022/11/19 02:07:38;;;;;;;1.10;1.00;;;16.00;59.50;;;;;;5089797;27;45416;-73
2022/11/19 02:10:06;;;;;;;1.00;0.93;;;16.00;59.50;;;;;;5089735;27;45406;-73
2022/11/19 02:12:39;;;;;;;1.15;1.05;;;16.00;59.50;;;;;;5089300;27;45926;-73
2022/11/19 02:15:14;;;;;;;1.20;1.10;;;16.00;59.50;;;;;;5089183;27;45240;-74
2022/11/19 02:17:52;;;;;;;1.23;1.13;;;16.00;59.50;;;;;;5089654;27;45417;-73
2022/11/19 02:20:44;;;;;;;1.10;1.00;;;16.00;59.50;;;;;;5089619;27;45492;-74
2022/11/19 02:24:00;;;;;;;1.15;1.00;;;16.00;59.50;;;;;;5089238;27;45620;-73
2022/11/19 02:26:55;;;;;;;1.38;1.20;;;16.00;59.50;;;;;;5089041;27;45247;-73
2022/11/19 02:29:57;;;;;;;0.82;0.82;;;16.00;59.50;;;;;;5089497;27;45231;-73
2022/11/19 02:32:28;;;;;;;0.80;0.80;;;16.00;59.50;;;;;;5046064;28;45404;-73
2022/11/19 02:34:57;;;;;;;0.93;0.90;;;16.00;59.50;;;;;;5079516;27;45545;-73
2022/11/19 02:37:26;;;;;;;0.98;0.90;;;16.00;59.50;;;;;;5089000;27;45234;-74
2022/11/19 02:39:54;;;;;;;1.20;1.10;;;16.00;59.50;;;;;;5089062;27;45200;-73
2022/11/19 02:42:22;;;;;;;0.82;0.82;;;16.00;60.10;;;;;;5089341;27;45320;-74
2022/11/19 02:45:01;;;;;;;3.60;1.15;;;16.00;59.50;;;;;;5088775;27;45424;-73
2022/11/19 02:47:31;;;;;;;0.90;0.90;;;15.90;59.50;;;;;;5089024;27;45364;-73
2022/11/19 02:50:01;;;;;;;1.58;1.08;;;15.90;60.00;;;;;;5088882;27;45299;-73
2022/11/19 02:52:27;;;;;;;2.13;1.13;;;15.90;60.10;;;;;;5088936;27;45406;-73
2022/11/19 02:54:54;;;;;;;0.90;0.90;;;15.90;59.50;;;;;;5088396;27;45364;-73
2022/11/19 02:57:21;;;;;;;1.30;1.10;;;15.90;59.50;;;;;;5088876;27;45270;-73
2022/11/19 03:05:22;;;;;;;1.05;1.00;;;15.90;59.40;;;;;;5084746;28;45410;-73
2022/11/19 03:07:49;;;;;;;1.08;0.80;;;15.90;59.50;;;;;;5088533;27;45225;-73
2022/11/19 03:10:16;;;;;;;1.00;0.90;;;15.90;59.40;;;;;;5088655;27;45271;-73
2022/11/19 03:12:46;;;;;;;1.10;1.00;;;15.90;59.50;;;;;;5088816;27;45477;-73
2022/11/19 03:18:12;;;;;;;1.10;1.00;;;15.90;59.60;;;;;;5088769;28;45275;-73
2022/11/19 03:20:41;;;;;;;1.45;0.90;;;15.80;59.40;;;;;;5088351;27;45306;-73
2022/11/19 03:23:10;;;;;;;0.80;0.80;;;15.90;59.50;;;;;;5088581;27;45585;-74
2022/11/19 03:25:38;;;;;;;1.25;0.98;;;15.80;60.10;;;;;;5088188;27;45227;-73
2022/11/19 03:28:08;;;;;;;1.25;0.90;;;15.80;59.50;;;;;;5088319;27;45333;-73
2022/11/19 03:30:35;;;;;;;0.80;0.80;;;15.80;59.40;;;;;;5088327;27;45210;-73
2022/11/19 03:33:04;;;;;;;0.75;0.75;;;15.80;59.50;;;;;;5088356;27;45232;-73
2022/11/19 03:35:34;;;;;;;1.20;0.90;;;15.80;60.10;;;;;;5088025;27;46375;-73
2022/11/19 03:38:03;;;;;;;0.80;0.80;;;15.80;59.50;;;;;;5088086;27;45243;-73
2022/11/19 03:40:30;;;;;;;1.35;0.88;;;15.80;59.50;;;;;;5088135;27;45237;-74
2022/11/19 03:42:57;;;;;;;0.93;0.90;;;15.80;59.50;;;;;;5088446;27;45524;-74
2022/11/19 03:45:25;;;;;;;0.90;0.90;;;15.80;59.50;;;;;;5087877;27;45660;-74
2022/11/19 03:47:52;;;;;;;1.00;0.90;;;15.80;59.50;;;;;;5087452;27;45321;-73
2022/11/19 03:50:21;;;;;;;1.10;1.10;;;15.80;59.50;;;;;;5087286;27;45342;-73
2022/11/19 03:52:50;;;;;;;1.88;0.75;;;15.80;59.50;;;;;;5088192;27;45254;-73
2022/11/19 03:55:17;;;;;;;0.90;0.77;;;15.80;59.50;;;;;;5087360;27;46435;-73
2022/11/19 03:57:44;;;;;;;0.73;0.73;;;15.80;59.50;;;;;;5087858;27;45262;-73
2022/11/19 04:00:11;;;;;;;1.27;0.80;;;15.80;59.50;;;;;;5088065;27;45303;-73
2022/11/19 04:02:39;;;;;;;0.60;0.60;;;15.70;59.50;;;;;;5088093;27;45287;-73
2022/11/19 04:05:06;;;;;;;0.85;0.70;;;15.70;59.50;;;;;;5087645;27;46580;-73
2022/11/19 04:07:33;;;;;;;0.65;0.65;;;15.70;59.40;;;;;;5087573;27;45213;-73
2022/11/19 04:10:02;;;;;;;1.00;0.85;;;15.70;59.40;;;;;;5087839;27;45322;-73
2022/11/19 04:12:29;;;;;;;0.60;0.60;;;15.70;59.50;;;;;;5087923;27;45225;-73
2022/11/19 04:14:56;;;;;;;0.82;0.82;;;15.70;59.50;;;;;;5087285;27;46351;-73
2022/11/19 04:17:23;;;;;;;1.27;0.90;;;15.70;59.60;;;;;;5087148;27;45193;-73
2022/11/19 04:19:49;;;;;;;0.70;0.70;;;15.70;59.50;;;;;;5087695;27;45262;-73
2022/11/19 04:22:16;;;;;;;1.08;0.50;;;15.70;60.10;;;;;;5087873;27;45300;-73
2022/11/19 04:24:43;;;;;;;0.65;0.65;;;15.70;59.50;;;;;;5087321;27;46522;-72
2022/11/19 04:27:12;;;;;;;0.85;0.85;;;15.70;59.50;;;;;;5087342;27;45289;-73
2022/11/19 04:29:39;;;;;;;1.00;0.80;;;15.70;59.50;;;;;;5087440;27;45141;-74
2022/11/19 04:32:06;;;;;;;0.85;0.75;;;15.70;59.60;;;;;;5087464;27;45533;-73
2022/11/19 04:34:33;;;;;;;0.60;0.60;;;15.70;59.60;;;;;;5086520;27;46405;-73
2022/11/19 04:37:00;;;;;;;0.70;0.70;;;15.60;59.60;;;;;;5087734;27;45189;-73
2022/11/19 04:39:27;;;;;;;1.55;0.82;;;15.60;59.60;;;;;;5087458;27;45247;-73
2022/11/19 04:41:54;;;;;;;1.23;0.80;;;15.60;59.60;;;;;;5086473;27;45448;-73
2022/11/19 04:44:22;;;;;;;0.70;0.70;;;15.60;59.60;;;;;;5087058;27;46575;-73
2022/11/19 04:46:49;;;;;;;3.05;0.80;;;15.60;60.20;;;;;;5087091;27;45218;-73
2022/11/19 04:49:16;;;;;;;0.50;0.50;;;15.60;59.60;;;;;;5087132;27;45197;-73
2022/11/19 04:51:43;;;;;;;1.02;0.70;;;15.60;59.60;;;;;;5087232;27;45193;-73
2022/11/19 04:54:11;;;;;;;0.65;0.65;;;15.60;59.60;;;;;;5086672;27;46450;-73
2022/11/19 04:56:38;;;;;;;0.63;0.63;;;15.60;59.60;;;;;;5086959;27;45291;-73
2022/11/19 04:59:07;;;;;;;0.70;0.70;;;15.60;59.60;;;;;;5087287;27;45224;-74
2022/11/19 05:01:35;;;;;;;0.70;0.70;;;15.60;59.60;;;;;;5087253;27;45251;-73
2022/11/19 05:04:02;;;;;;;0.85;0.80;;;15.60;59.60;;;;;;5086788;27;46665;-73
2022/11/19 05:06:29;;;;;;;0.50;0.50;;;15.60;59.60;;;;;;5086970;27;45290;-73
2022/11/19 05:08:55;;;;;;;0.77;0.50;;;15.50;59.60;;;;;;5086995;27;45268;-73
2022/11/19 05:11:23;;;;;;;0.60;0.60;;;15.60;59.60;;;;;;5087115;27;45611;-73
2022/11/19 05:13:50;;;;;;;0.60;0.60;;;15.50;59.60;;;;;;5086870;27;45513;-73
2022/11/19 05:16:17;;;;;;;1.27;0.50;;;15.50;59.60;;;;;;5086571;27;45382;-73
2022/11/19 05:18:45;;;;;;;0.95;0.60;;;15.50;59.60;;;;;;5086048;27;45248;-73
2022/11/19 05:21:12;;;;;;;0.65;0.65;;;15.50;59.60;;;;;;5087006;27;45184;-73
2022/11/19 05:23:39;;;;;;;0.50;0.50;;;15.50;59.70;;;;;;5086587;27;46670;-74
2022/11/19 05:26:06;;;;;;;0.60;0.60;;;15.50;59.60;;;;;;5086629;27;45282;-74
2022/11/19 05:28:33;;;;;;;0.60;0.60;;;15.50;59.70;;;;;;5088308;27;45238;-73
2022/11/19 05:31:00;;;;;;;0.57;0.57;;;15.50;59.60;;;;;;5090396;27;45469;-73
2022/11/19 05:33:27;;;;;;;0.90;0.70;;;15.50;59.60;;;;;;5090088;27;46355;-73
2022/11/19 05:35:55;;;;;;;0.73;0.52;;;15.50;59.60;;;;;;5090110;27;45255;-72
2022/11/19 05:38:22;;;;;;;0.65;0.65;;;15.40;60.30;;;;;;5090056;27;45244;-73
2022/11/19 05:40:49;;;;;;;0.60;0.60;;;15.50;59.70;;;;;;5090483;27;45298;-73
2022/11/19 05:43:16;;;;;;;0.40;0.40;;;15.40;59.60;;;;;;5089859;27;45210;-73
2022/11/19 05:45:43;;;;;;;1.08;0.52;;;15.50;59.70;;;;;;5089868;27;45220;-73
2022/11/19 05:48:10;;;;;;;0.70;0.70;;;15.40;59.60;;;;;;5069522;28;45298;-74
2022/11/19 05:50:37;;;;;;;0.52;0.52;;;15.40;59.70;;;;;;5087513;28;45278;-73
2022/11/19 05:53:05;;;;;;;0.55;0.55;;;15.40;59.70;;;;;;5089544;27;46863;-73
2022/11/19 05:55:33;;;;;;;0.70;0.60;;;15.40;59.70;;;;;;5089243;27;45184;-73
2022/11/19 05:57:59;;;;;;;0.90;0.70;;;15.40;59.70;;;;;;5090018;27;45694;-73
2022/11/19 06:00:26;;;;;;;0.68;0.68;;;15.40;59.70;;;;;;5090113;27;45364;-73
2022/11/19 06:02:53;;;;;;;1.08;0.57;;;15.40;59.70;;;;;;5088765;27;46331;-73
2022/11/19 06:05:20;;;;;;;0.50;0.50;;;15.40;59.70;;;;;;5089855;27;45210;-73
2022/11/19 06:07:47;;;;;;;1.58;0.90;;;15.40;59.70;;;;;;5089660;27;45255;-73
2022/11/19 06:10:15;;;;;;;1.38;0.70;;;15.40;59.70;;;;;;5089931;27;45260;-73
2022/11/19 06:12:43;;;;;;;0.90;0.80;;;15.40;59.70;;;;;;5089303;27;46732;-73
2022/11/19 06:15:10;;;;;;;0.60;0.60;;;15.40;59.70;;;;;;5089500;27;45310;-73
2022/11/19 06:17:37;;;;;;;0.77;0.70;;;15.40;59.70;;;;;;5089534;27;45181;-73
2022/11/19 06:20:07;;;;;;;0.70;0.63;;;15.40;59.70;;;;;;5089774;27;45227;-73
2022/11/19 06:22:34;;;;;;;0.70;0.70;;;15.40;59.70;;;;;;5089209;27;45383;-73
2022/11/19 06:25:02;;;;;;;0.70;0.70;;;15.40;59.70;;;;;;5089387;27;45262;-73
2022/11/19 06:27:30;;;;;;;0.52;0.52;;;15.30;59.70;;;;;;5089415;27;45210;-73
2022/11/19 06:29:57;;;;;;;0.70;0.70;;;15.30;59.70;;;;;;5089735;27;45275;-73
2022/11/19 06:32:24;;;;;;;0.50;0.50;;;15.30;59.70;;;;;;5089118;27;45543;-73
2022/11/19 06:34:51;;;;;;;0.50;0.50;;;15.30;59.60;;;;;;5089365;27;45341;-73
2022/11/19 06:37:18;;;;;;;0.40;0.40;;;15.30;59.60;;;;;;5089467;27;45199;-73
2022/11/19 06:39:45;;;;;;;0.55;0.52;;;15.30;59.70;;;;;;5089376;27;45464;-73
2022/11/19 06:44:57;;;;;;;0.73;0.60;;;15.30;59.70;;;;;;5086553;28;45308;-73
2022/11/19 06:47:24;;;;;;;0.60;0.60;;;15.30;59.70;;;;;;5089084;27;45283;-73
2022/11/19 06:49:51;;;;;;;1.35;0.70;;;15.30;59.70;;;;;;5089164;27;45492;-73
2022/11/19 06:52:18;;;;;;;0.60;0.60;;;15.30;59.70;;;;;;5087918;27;46356;-73
2022/11/19 06:54:45;;;;;;;0.93;0.80;;;15.30;59.70;;;;;;5087994;27;45305;-73
2022/11/19 06:57:12;;;;;;;0.60;0.60;;;15.30;59.70;;;;;;5088903;27;45298;-72
2022/11/19 06:59:39;;;;;;;1.20;0.82;;;15.30;59.70;;;;;;5088873;27;45439;-73
2022/11/19 07:02:08;;;;;;;0.75;0.60;;;15.30;60.40;;;;;;5088485;27;46536;-73
2022/11/19 07:04:35;;;;;;;1.33;0.60;;;15.30;59.70;;;;;;5088614;27;45197;-73
2022/11/19 07:07:03;;;;;;;0.90;0.70;;;15.30;59.80;;;;;;5088872;27;45289;-73
2022/11/19 07:09:30;;;;;;;1.00;0.90;;;15.20;59.70;;;;;;5089159;27;45306;-73
2022/11/19 07:11:57;;;;;;;0.82;0.40;;;15.30;59.70;;;;;;5088404;27;45500;-73
2022/11/19 07:14:23;;;;;;;2.40;0.70;;;15.30;59.70;;;;;;5088548;27;45260;-73
2022/11/19 07:16:51;;;;;;;0.55;0.50;;;15.20;59.70;;;;;;5088717;27;45192;-73
2022/11/19 07:19:19;;;;;;;0.77;0.77;;;15.30;59.70;;;;;;5089064;27;45512;-74
2022/11/19 07:21:46;;;;;;;1.30;0.63;;;15.30;59.70;;;;;;5088532;27;45547;-74
2022/11/19 07:24:15;;;;;;;0.47;0.47;;;15.30;59.70;;;;;;5088446;27;45248;-74
2022/11/19 07:26:42;;;;;;;2.67;0.60;;;15.20;59.70;;;;;;5088481;27;45427;-74
2022/11/19 07:29:10;;;;;;;0.77;0.77;;;15.20;59.70;;;;;;5088585;27;45394;-73
2022/11/19 07:31:39;;;;;;;0.55;0.55;;;15.20;59.70;;;;;;5088130;27;45278;-73
2022/11/19 07:34:06;;;;;;;1.27;0.63;;;15.20;59.70;;;;;;5088118;27;45290;-73
2022/11/19 07:36:35;;;;;;;0.68;0.60;;;15.20;59.70;;;;;;5088323;27;45253;-73
2022/11/19 07:39:02;;;;;;;0.45;0.45;;;15.20;59.70;;;;;;5087730;27;45465;-74
2022/11/19 07:44:13;;;;;;;0.60;0.60;;;15.20;59.70;;;;;;5087562;28;45197;-73
2022/11/19 07:46:41;;;;;;;0.80;0.68;;;15.30;59.70;;;;;;5087883;27;45290;-74
2022/11/19 07:49:07;;;;;;;0.93;0.50;;;15.20;59.60;;;;;;5088648;27;45278;-74
2022/11/19 07:51:36;;;;;;;0.95;0.60;;;15.20;59.70;;;;;;5086999;27;45247;-74
2022/11/19 07:54:03;;;;;;;0.52;0.52;;;15.20;59.60;;;;;;5087974;27;45200;-74
2022/11/19 07:56:29;;;;;;;0.65;0.65;;;15.20;59.60;;;;;;5088076;27;45238;-74
2022/11/19 07:58:57;;;;;;;0.65;0.60;;;15.30;59.60;;;;;;5088259;27;45285;-74
2022/11/19 08:01:23;;;;;;;0.57;0.57;;;15.20;59.60;;;;;;5087804;27;45481;-74
2022/11/19 08:03:51;;;;;;;0.95;0.60;;;15.20;59.60;;;;;;5087799;27;45366;-74
2022/11/19 08:06:18;;;;;;;0.90;0.70;;;15.20;60.10;;;;;;5088253;27;45181;-73
2022/11/19 08:08:47;;;;;;;2.10;0.80;;;15.20;59.60;;;;;;5088042;27;45190;-74
2022/11/19 08:11:15;;;;;;;0.88;0.77;;;15.30;59.60;;;;;;5087654;27;47085;-74
2022/11/19 08:13:42;;;;;;;1.05;0.70;;;15.20;59.60;;;;;;5085762;27;45231;-73
2022/11/19 08:16:10;;;;;;;0.50;0.50;;;15.20;59.60;;;;;;5073907;27;45468;-73
2022/11/19 08:18:36;;;;;;;2.03;0.73;;;15.20;59.50;;;;;;5067841;28;45518;-74
2022/11/19 08:21:03;;;;;;;1.05;0.63;;;15.30;59.60;;;;;;5076978;28;45481;-78
2022/11/19 08:23:30;;;;;;;1.23;0.70;;;15.20;59.60;;;;;;5080676;27;45230;-77
2022/11/19 08:26:00;;;;;;;0.55;0.55;;;15.30;59.60;;;;;;5092270;27;45493;-77
2022/11/19 08:28:27;;;;;;;0.65;0.60;;;15.30;59.60;;;;;;5101927;27;45286;-78
2022/11/19 08:30:56;;;;;;;1.38;0.70;;;15.20;59.60;;;;;;5087909;27;45244;-78
2022/11/19 08:33:23;;;;;;;1.85;0.60;;;15.20;59.60;;;;;;5110322;27;45463;-78
2022/11/19 08:38:56;;;;;;;0.90;0.77;;;15.30;59.70;;;;;;5089369;27;45472;-77
2022/11/19 08:44:06;;;;;;;0.60;0.50;;;15.20;59.60;;;;;;5057963;27;45410;-78
2022/11/19 08:46:33;;;;;;;2.70;0.80;;;15.20;59.60;;;;;;5092604;27;45274;-77
2022/11/19 08:49:00;;;;;;;0.60;0.60;;;15.20;59.60;;;;;;5096059;27;45288;-78
2022/11/19 08:51:27;;;;;;;1.50;0.70;;;15.20;59.60;;;;;;5093306;27;46606;-79
2022/11/19 08:53:54;;;;;;;0.98;0.70;;;15.30;59.70;;;;;;5076063;27;45309;-78
2022/11/19 08:56:21;;;;;;;1.35;0.70;;;15.30;59.70;;;;;;5091848;27;45149;-79
2022/11/19 08:58:49;;;;;;;0.75;0.70;;;15.20;59.60;;;;;;5091593;27;45714;-73
2022/11/19 09:01:17;;;;;;;0.50;0.50;;;15.20;59.60;;;;;;5092280;27;47027;-76
2022/11/19 09:03:43;;;;;;;1.17;0.80;;;15.30;59.70;;;;;;5093730;27;45418;-75
2022/11/19 09:06:11;;;;;;;0.45;0.45;;;15.20;59.60;;;;;;5095335;27;45387;-76
2022/11/19 09:08:38;;;;;;;1.05;0.57;;;15.30;59.70;;;;;;5094801;27;45455;-76
2022/11/19 09:11:06;;;;;;;1.00;0.50;;;15.20;59.60;;;;;;5088513;27;46825;-75
2022/11/19 09:13:33;;;;;;;1.20;0.60;;;15.30;59.60;;;;;;5088985;27;45461;-76
2022/11/19 09:16:01;;;;;;;2.45;0.90;;;15.30;59.60;;;;;;5089380;27;45508;-75
2022/11/19 09:18:28;;;;;;;0.73;0.73;;;15.30;59.60;;;;;;5088523;27;45540;-76
2022/11/19 09:20:55;;;;;;;0.95;0.70;;;15.30;59.60;;;;;;5089625;27;46415;-76
2022/11/19 09:23:22;;;;;;;0.60;0.47;;;15.30;59.40;;;;;;5092325;27;45391;-73
2022/11/19 09:25:55;;;;;;;2.47;0.90;;;15.30;59.40;;;;;;5073681;27;45596;-75
2022/11/19 09:28:22;;;;;;;1.20;0.70;;;15.30;59.70;;;;;;5088254;27;45424;-74
2022/11/19 09:30:55;;;;;;;0.93;0.80;;;15.40;60.40;;;;;;5083298;28;45237;-75
2022/11/19 09:33:24;;;;;;;0.80;0.80;;;15.40;59.50;;;;;;5074604;28;45367;-75
2022/11/19 09:35:52;;;;;;;0.43;0.43;;;15.50;59.50;;;;;;5085678;27;45402;-73
2022/11/19 09:38:30;;;;;;;0.70;0.70;;;15.50;59.40;;;;;;5077409;28;46756;-74
2022/11/19 09:40:57;;;;;;;0.75;0.75;;;15.50;59.30;;;;;;5079948;27;46736;-73
2022/11/19 09:43:32;;;;;;;1.58;0.60;;;15.60;59.20;;;;;;5085742;27;45420;-74
2022/11/19 09:46:01;;;;;;;1.40;0.85;;;15.60;59.10;;;;;;5085200;27;45485;-73
2022/11/19 09:48:32;;;;;;;1.38;0.70;;;15.70;59.00;;;;;;5082003;28;45352;-74
2022/11/19 09:51:01;;;;;;;0.65;0.60;;;15.70;58.80;;;;;;5081853;28;45527;-74
2022/11/19 09:53:30;;;;;;;3.15;0.60;;;15.80;58.70;;;;;;5083548;28;45507;-73
2022/11/19 09:55:58;;;;;;;1.00;0.60;;;15.80;58.70;;;;;;5084973;27;45471;-74
2022/11/19 09:58:26;;;;;;;0.60;0.60;;;15.80;58.80;;;;;;5085752;27;45473;-74
2022/11/19 10:00:53;;;;;;;1.33;0.80;;;15.80;58.70;;;;;;5085232;27;47233;-75
2022/11/19 10:03:21;;;;;;;0.80;0.80;;;15.80;58.80;;;;;;5081660;27;46199;-73
2022/11/19 10:06:01;;;;;;;1.05;0.77;;;15.80;58.80;;;;;;5083624;27;45438;-73
2022/11/19 10:08:37;;;;;;;0.50;0.50;;;15.90;58.70;;;;;;5083663;28;45425;-73
2022/11/19 10:11:11;;;;;;;7.32;0.95;;;15.90;58.70;;;;;;5086035;27;47742;-74
2022/11/19 10:13:45;;;;;;;1.55;0.70;;;15.90;58.60;;;;;;5082117;27;45626;-73
2022/11/19 10:16:20;;;;;;;4.65;0.80;;;15.90;58.50;;;;;;5081983;27;45433;-74
2022/11/19 10:18:51;;;;;;;1.00;0.70;;;15.90;59.30;;;;;;5085085;27;45504;-74
2022/11/19 10:21:25;;;;;;;2.05;0.60;;;15.90;58.80;;;;;;5087365;27;45430;-75
2022/11/19 10:23:54;;;;;;;4.00;0.70;;;15.90;58.80;;;;;;5083497;27;45526;-75
2022/11/19 10:26:25;;;;;;;1.08;0.90;;;15.90;58.80;;;;;;5083883;27;45467;-74
2022/11/19 10:28:54;;;;;;;1.27;0.82;;;15.90;58.80;;;;;;5087111;28;45606;-75
2022/11/19 10:31:30;;;;;;;2.55;0.70;;;15.90;58.70;;;;;;5086684;27;46409;-74
2022/11/19 10:34:02;;;;;;;0.47;0.40;;;15.90;58.70;;;;;;5085021;27;45570;-75
2022/11/19 10:36:32;;;;;;;0.98;0.80;;;15.90;58.80;;;;;;5084003;28;45370;-73
2022/11/19 10:39:02;;;;;;;0.98;0.60;;;16.00;58.70;;;;;;5083714;27;45396;-75
2022/11/19 10:41:33;;;;;;;0.93;0.65;;;16.00;58.70;;;;;;5084682;27;45474;-73
2022/11/19 10:44:01;;;;;;;0.57;0.57;;;16.00;58.70;;;;;;5084267;27;45938;-73
2022/11/19 10:46:28;;;;;;;2.78;0.70;;;16.00;58.70;;;;;;5080962;27;45505;-75
2022/11/19 10:48:56;;;;;;;1.42;0.73;;;16.00;58.70;;;;;;5081708;27;45454;-74
2022/11/19 10:51:26;;;;;;;3.05;1.00;;;16.00;58.80;;;;;;5084118;27;45418;-76
2022/11/19 10:53:54;;;;;;;1.85;0.73;;;16.00;59.10;;;;;;5081054;27;45482;-74
2022/11/19 10:56:22;;;;;;;0.60;0.60;;;16.00;59.00;;;;;;5088728;27;45291;-74
2022/11/19 10:58:51;;;;;;;0.75;0.60;;;16.00;59.00;;;;;;5078231;27;45467;-75
2022/11/19 11:01:24;;;;;;;2.88;0.90;;;16.00;59.00;;;;;;5074110;27;47571;-74
2022/11/19 11:03:55;;;;;;;0.88;0.70;;;16.00;59.00;;;;;;5080860;28;45498;-74
2022/11/19 11:06:23;;;;;;;1.50;0.73;;;16.00;59.00;;;;;;5086473;27;45468;-73
2022/11/19 11:08:50;;;;;;;1.42;0.60;;;16.00;58.90;;;;;;5087959;27;45283;-74
2022/11/19 11:14:50;;;;;;;3.17;0.80;;;16.00;59.00;;;;;;5072190;28;46670;-70
2022/11/19 11:16:58;;;;;;;3.30;0.85;;;16.00;59.10;;;;;;5089243;27;45485;-74
2022/11/19 11:19:25;;;;;;;2.00;1.10;;;16.00;59.00;;;;;;5091846;27;45202;-77
2022/11/19 11:21:52;;;;;;;0.85;0.70;;;16.10;59.00;;;;;;5108730;27;46818;-77
2022/11/19 11:24:19;;;;;;;0.70;0.60;;;16.10;59.00;;;;;;5085035;27;45397;-75
2022/11/19 11:26:47;;;;;;;1.50;0.85;;;16.10;59.00;;;;;;5083935;27;45410;-75
2022/11/19 11:29:25;;;;;;;1.85;0.80;;;16.20;58.90;;;;;;5100626;27;45478;-75
2022/11/19 11:31:52;;;;;;;2.05;0.95;;;16.20;58.70;;;;;;5092762;27;45301;-75
2022/11/19 11:34:29;;;;;;;2.22;0.95;;;16.30;58.70;;;;;;5091329;27;45480;-76
2022/11/19 11:36:56;;;;;;;1.92;0.90;;;16.20;58.70;;;;;;5093000;27;45358;-76
2022/11/19 11:39:25;;;;;;;3.78;0.77;;;16.20;58.70;;;;;;5093184;27;45487;-73
2022/11/19 11:41:53;;;;;;;2.10;0.90;;;16.20;58.70;;;;;;5076428;27;46309;-73
2022/11/19 11:44:21;;;;;;;5.65;1.15;;;16.20;58.70;;;;;;5080035;27;45541;-76
2022/11/19 11:46:49;;;;;;;2.15;1.00;;;16.30;58.80;;;;;;5103833;27;45541;-76
2022/11/19 11:49:23;;;;;;;4.25;1.20;;;16.30;58.80;;;;;;5098297;27;45626;-72
2022/11/19 11:52:14;;;;;;;2.35;1.10;;;16.20;59.00;;;;;;5092041;27;45568;-72
2022/11/19 11:54:54;;;;;;;6.60;1.10;;;16.20;58.90;;;;;;5105883;27;45894;-74
2022/11/19 11:57:23;;;;;;;2.42;1.15;;;16.30;58.90;;;;;;5075473;27;45696;-74
2022/11/19 11:59:50;;;;;;;11.45;1.55;;;16.40;58.70;;;;;;5085056;27;45593;-74
2022/11/19 12:02:22;;;;;;;10.90;1.30;;;16.50;58.60;;;;;;5074747;27;46409;-75
2022/11/19 12:04:50;;;;;;;6.78;1.20;;;16.60;58.40;;;;;;5097430;27;45626;-73
2022/11/19 12:08:07;;;;;;;3.88;1.23;;;16.70;57.90;;;;;;5082373;27;45651;-72
2022/11/19 12:10:42;;;;;;;5.07;1.30;;;16.80;57.80;;;;;;5082502;28;45613;-73
2022/11/19 12:13:56;;;;;;;2.50;1.10;;;16.90;57.60;;;;;;5077774;27;45484;-73
2022/11/19 12:16:33;;;;;;;1.65;1.05;;;16.90;58.10;;;;;;5078583;27;45964;-72
2022/11/19 12:19:10;;;;;;;4.10;1.08;;;16.80;57.50;;;;;;5079119;27;45479;-71
2022/11/19 12:21:40;;;;;;;2.28;0.90;;;16.80;57.70;;;;;;5082009;27;45404;-70
2022/11/19 12:24:21;;;;;;;3.25;0.90;;;16.70;57.60;;;;;;5086260;27;46416;-73
2022/11/19 12:26:51;;;;;;;4.22;1.15;;;16.70;58.00;;;;;;5077548;27;45309;-68
2022/11/19 12:29:21;;;;;;;2.42;1.17;;;16.60;58.00;;;;;;5090694;27;45430;-74
2022/11/19 12:32:00;;;;;;;4.32;1.30;;;16.60;58.10;;;;;;5092730;27;45334;-76
2022/11/19 12:34:52;;;;;;;2.70;1.10;;;16.60;58.40;;;;;;5070668;27;46357;-69
2022/11/19 12:37:27;;;;;;;3.00;1.40;;;16.50;58.50;;;;;;5081063;27;45383;-72
2022/11/19 12:39:55;;;;;;;3.45;1.17;;;16.50;58.60;;;;;;5075511;28;45353;-70
2022/11/19 12:42:29;;;;;;;1.25;0.82;;;16.50;58.70;;;;;;5075331;27;45514;-74
2022/11/19 12:45:01;;;;;;;3.00;1.20;;;16.50;58.80;;;;;;5076209;28;46395;-71
2022/11/19 12:47:37;;;;;;;2.20;1.05;;;16.40;58.80;;;;;;5076755;28;45406;-71
2022/11/19 12:50:13;;;;;;;4.38;1.13;;;16.40;58.80;;;;;;5076788;28;45413;-73
2022/11/19 12:53:15;;;;;;;0.73;0.60;;;16.30;57.90;;;;;;5077476;27;45773;-72
2022/11/19 12:55:47;;;;;;;3.30;0.93;;;16.30;58.20;;;;;;5078563;27;46420;-73
2022/11/19 12:58:18;;;;;;;3.63;0.88;;;16.20;58.60;;;;;;5088141;28;45453;-73
2022/11/19 13:00:49;;;;;;;2.50;1.00;;;16.20;58.80;;;;;;5074816;27;45403;-73
2022/11/19 13:03:20;;;;;;;4.10;1.00;;;16.20;58.90;;;;;;5077702;27;45389;-73
2022/11/19 13:05:49;;;;;;;3.20;1.10;;;16.20;59.10;;;;;;5084501;27;45891;-72
2022/11/19 13:08:18;;;;;;;3.38;1.08;;;16.20;59.30;;;;;;5079650;27;45632;-72
2022/11/19 13:10:47;;;;;;;2.40;0.73;;;16.20;59.40;;;;;;5079690;27;45262;-73
2022/11/19 13:13:17;;;;;;;5.72;1.42;;;16.20;59.60;;;;;;5076263;28;45497;-73
2022/11/19 13:15:45;;;;;;;4.07;1.02;;;16.20;59.70;;;;;;5081813;27;45447;-72
2022/11/19 13:18:13;;;;;;;1.90;1.20;;;16.20;59.70;;;;;;5080052;27;45446;-73
2022/11/19 13:20:45;;;;;;;2.03;1.00;;;16.20;59.70;;;;;;5084925;27;45464;-78
2022/11/19 13:23:14;;;;;;;2.67;0.90;;;16.20;59.70;;;;;;5079765;28;45319;-76
2022/11/19 13:25:43;;;;;;;1.88;0.98;;;16.20;59.80;;;;;;5076921;28;47387;-79
2022/11/19 13:28:16;;;;;;;4.68;1.15;;;16.20;59.80;;;;;;5080599;27;45576;-77